sensor_id;sensor_type;location;lat;lon;timestamp;temperature;humidity
7447;DHT22;3765;47.962;7.952;2022-12-29T00:01:10;14.30;49.00
7447;DHT22;3765;47.962;7.952;2022-12-29T00:03:39;14.20;48.40
7447;DHT22;3765;47.962;7.952;2022-12-29T00:06:07;14.20;48.40
7447;DHT22;3765;47.962;7.952;2022-12-29T00:08:37;14.20;49.10
7447;DHT22;3765;47.962;7.952;2022-12-29T00:11:09;14.10;48.80
7447;DHT22;3765;47.962;7.952;2022-12-29T00:13:38;14.10;48.50
7447;DHT22;3765;47.962;7.952;2022-12-29T00:16:23;14.10;48.20
7447;DHT22;3765;47.962;7.952;2022-12-29T00:18:52;14.00;48.60
7447;DHT22;3765;47.962;7.952;2022-12-29T00:21:22;13.90;48.50
7447;DHT22;3765;47.962;7.952;2022-12-29T00:24:15;14.00;48.60
7447;DHT22;3765;47.962;7.952;2022-12-29T00:27:11;14.00;48.00
7447;DHT22;3765;47.962;7.952;2022-12-29T00:29:58;14.00;48.10
7447;DHT22;3765;47.962;7.952;2022-12-29T00:32:43;13.90;48.60
7447;DHT22;3765;47.962;7.952;2022-12-29T00:35:31;13.90;48.30
7447;DHT22;3765;47.962;7.952;2022-12-29T00:38:02;13.90;48.10
7447;DHT22;3765;47.962;7.952;2022-12-29T00:40:50;13.90;48.10
7447;DHT22;3765;47.962;7.952;2022-12-29T00:43:35;13.90;48.20
7447;DHT22;3765;47.962;7.952;2022-12-29T00:46:21;14.00;47.70
7447;DHT22;3765;47.962;7.952;2022-12-29T00:48:50;14.10;46.60
7447;DHT22;3765;47.962;7.952;2022-12-29T00:51:35;14.10;46.90
7447;DHT22;3765;47.962;7.952;2022-12-29T00:54:03;14.10;47.10
7447;DHT22;3765;47.962;7.952;2022-12-29T00:56:34;14.00;47.10
7447;DHT22;3765;47.962;7.952;2022-12-29T00:59:02;14.10;47.10
7447;DHT22;3765;47.962;7.952;2022-12-29T01:01:30;14.00;47.00
7447;DHT22;3765;47.962;7.952;2022-12-29T01:03:59;14.00;47.20
7447;DHT22;3765;47.962;7.952;2022-12-29T01:06:30;14.00;46.50
7447;DHT22;3765;47.962;7.952;2022-12-29T01:08:59;14.10;46.60
7447;DHT22;3765;47.962;7.952;2022-12-29T01:11:46;14.20;46.60
7447;DHT22;3765;47.962;7.952;2022-12-29T01:14:15;14.20;45.70
7447;DHT22;3765;47.962;7.952;2022-12-29T01:16:43;14.20;46.70
7447;DHT22;3765;47.962;7.952;2022-12-29T01:19:12;14.20;46.40
7447;DHT22;3765;47.962;7.952;2022-12-29T01:21:40;14.10;46.40
7447;DHT22;3765;47.962;7.952;2022-12-29T01:24:09;14.10;46.90
7447;DHT22;3765;47.962;7.952;2022-12-29T01:26:37;14.10;47.00
7447;DHT22;3765;47.962;7.952;2022-12-29T01:29:07;14.10;46.50
7447;DHT22;3765;47.962;7.952;2022-12-29T01:31:35;14.00;46.80
7447;DHT22;3765;47.962;7.952;2022-12-29T01:34:03;14.00;46.90
7447;DHT22;3765;47.962;7.952;2022-12-29T01:36:32;14.00;47.10
7447;DHT22;3765;47.962;7.952;2022-12-29T01:39:00;14.00;46.90
7447;DHT22;3765;47.962;7.952;2022-12-29T01:41:28;14.00;47.10
7447;DHT22;3765;47.962;7.952;2022-12-29T01:43:58;13.90;47.20
7447;DHT22;3765;47.962;7.952;2022-12-29T01:46:31;13.80;47.10
7447;DHT22;3765;47.962;7.952;2022-12-29T01:49:05;13.80;47.30
7447;DHT22;3765;47.962;7.952;2022-12-29T01:51:40;13.80;47.30
7447;DHT22;3765;47.962;7.952;2022-12-29T01:54:11;13.80;47.20
7447;DHT22;3765;47.962;7.952;2022-12-29T01:56:41;13.80;47.60
7447;DHT22;3765;47.962;7.952;2022-12-29T01:59:14;13.80;47.70
7447;DHT22;3765;47.962;7.952;2022-12-29T02:01:45;13.70;47.80
7447;DHT22;3765;47.962;7.952;2022-12-29T02:04:14;13.70;47.90
7447;DHT22;3765;47.962;7.952;2022-12-29T02:06:47;13.70;48.00
7447;DHT22;3765;47.962;7.952;2022-12-29T02:09:17;13.60;48.20
7447;DHT22;3765;47.962;7.952;2022-12-29T02:11:46;13.60;48.40
7447;DHT22;3765;47.962;7.952;2022-12-29T02:14:15;13.60;48.60
7447;DHT22;3765;47.962;7.952;2022-12-29T02:16:57;13.50;48.60
7447;DHT22;3765;47.962;7.952;2022-12-29T02:20:03;13.50;48.70
7447;DHT22;3765;47.962;7.952;2022-12-29T02:22:42;13.50;48.70
7447;DHT22;3765;47.962;7.952;2022-12-29T02:25:39;13.50;48.70
7447;DHT22;3765;47.962;7.952;2022-12-29T02:28:41;13.50;48.90
7447;DHT22;3765;47.962;7.952;2022-12-29T02:31:20;13.50;49.00
7447;DHT22;3765;47.962;7.952;2022-12-29T02:34:00;13.40;49.30
7447;DHT22;3765;47.962;7.952;2022-12-29T02:36:39;13.40;49.40
7447;DHT22;3765;47.962;7.952;2022-12-29T02:39:15;13.30;49.50
7447;DHT22;3765;47.962;7.952;2022-12-29T02:41:52;13.30;49.60
7447;DHT22;3765;47.962;7.952;2022-12-29T02:44:28;13.30;49.80
7447;DHT22;3765;47.962;7.952;2022-12-29T02:47:02;13.30;50.00
7447;DHT22;3765;47.962;7.952;2022-12-29T02:49:36;13.30;50.10
7447;DHT22;3765;47.962;7.952;2022-12-29T02:52:10;13.30;50.20
7447;DHT22;3765;47.962;7.952;2022-12-29T02:54:40;13.30;50.20
7447;DHT22;3765;47.962;7.952;2022-12-29T02:57:12;13.30;50.30
7447;DHT22;3765;47.962;7.952;2022-12-29T02:59:45;13.30;50.40
7447;DHT22;3765;47.962;7.952;2022-12-29T03:02:35;13.30;50.70
7447;DHT22;3765;47.962;7.952;2022-12-29T03:05:15;13.30;50.70
7447;DHT22;3765;47.962;7.952;2022-12-29T03:07:52;13.30;50.70
7447;DHT22;3765;47.962;7.952;2022-12-29T03:10:33;13.20;51.00
7447;DHT22;3765;47.962;7.952;2022-12-29T03:13:13;13.20;51.00
7447;DHT22;3765;47.962;7.952;2022-12-29T03:16:10;13.20;51.20
7447;DHT22;3765;47.962;7.952;2022-12-29T03:18:46;13.10;51.40
7447;DHT22;3765;47.962;7.952;2022-12-29T03:21:22;13.10;51.60
7447;DHT22;3765;47.962;7.952;2022-12-29T03:24:22;13.10;51.60
7447;DHT22;3765;47.962;7.952;2022-12-29T03:26:57;13.00;51.70
7447;DHT22;3765;47.962;7.952;2022-12-29T03:29:27;13.10;51.90
7447;DHT22;3765;47.962;7.952;2022-12-29T03:31:59;13.10;51.90
7447;DHT22;3765;47.962;7.952;2022-12-29T03:34:41;13.00;52.00
7447;DHT22;3765;47.962;7.952;2022-12-29T03:37:16;13.00;52.10
7447;DHT22;3765;47.962;7.952;2022-12-29T03:39:48;13.00;52.00
7447;DHT22;3765;47.962;7.952;2022-12-29T03:42:21;13.00;52.10
7447;DHT22;3765;47.962;7.952;2022-12-29T03:44:54;12.90;52.10
7447;DHT22;3765;47.962;7.952;2022-12-29T03:47:31;12.80;52.20
7447;DHT22;3765;47.962;7.952;2022-12-29T03:50:04;12.80;52.30
7447;DHT22;3765;47.962;7.952;2022-12-29T03:52:36;12.80;52.50
7447;DHT22;3765;47.962;7.952;2022-12-29T03:55:09;12.80;52.60
7447;DHT22;3765;47.962;7.952;2022-12-29T03:57:38;12.70;52.60
7447;DHT22;3765;47.962;7.952;2022-12-29T04:00:08;12.70;52.80
7447;DHT22;3765;47.962;7.952;2022-12-29T04:02:38;12.80;52.80
7447;DHT22;3765;47.962;7.952;2022-12-29T04:05:11;12.80;52.90
7447;DHT22;3765;47.962;7.952;2022-12-29T04:07:40;12.90;52.80
7447;DHT22;3765;47.962;7.952;2022-12-29T04:10:23;12.90;52.80
7447;DHT22;3765;47.962;7.952;2022-12-29T04:12:54;12.90;53.00
7447;DHT22;3765;47.962;7.952;2022-12-29T04:15:23;12.90;52.90
7447;DHT22;3765;47.962;7.952;2022-12-29T04:17:56;12.90;53.00
7447;DHT22;3765;47.962;7.952;2022-12-29T04:20:40;12.90;53.10
7447;DHT22;3765;47.962;7.952;2022-12-29T04:23:26;12.90;53.30
7447;DHT22;3765;47.962;7.952;2022-12-29T04:26:00;12.90;53.40
7447;DHT22;3765;47.962;7.952;2022-12-29T04:28:29;12.90;53.40
7447;DHT22;3765;47.962;7.952;2022-12-29T04:30:58;13.00;53.60
7447;DHT22;3765;47.962;7.952;2022-12-29T04:33:27;13.10;53.60
7447;DHT22;3765;47.962;7.952;2022-12-29T04:35:58;13.00;53.60
7447;DHT22;3765;47.962;7.952;2022-12-29T04:38:28;13.00;53.90
7447;DHT22;3765;47.962;7.952;2022-12-29T04:40:59;13.00;53.80
7447;DHT22;3765;47.962;7.952;2022-12-29T04:43:28;13.10;53.90
7447;DHT22;3765;47.962;7.952;2022-12-29T04:45:58;13.00;53.90
7447;DHT22;3765;47.962;7.952;2022-12-29T04:48:27;13.00;53.90
7447;DHT22;3765;47.962;7.952;2022-12-29T04:50:55;12.90;54.00
7447;DHT22;3765;47.962;7.952;2022-12-29T04:53:35;13.00;53.90
7447;DHT22;3765;47.962;7.952;2022-12-29T04:56:03;13.10;53.80
7447;DHT22;3765;47.962;7.952;2022-12-29T04:58:35;13.10;53.70
7447;DHT22;3765;47.962;7.952;2022-12-29T05:01:12;13.10;53.70
7447;DHT22;3765;47.962;7.952;2022-12-29T05:03:42;13.00;53.80
7447;DHT22;3765;47.962;7.952;2022-12-29T05:06:12;13.00;53.80
7447;DHT22;3765;47.962;7.952;2022-12-29T05:08:57;13.10;53.70
7447;DHT22;3765;47.962;7.952;2022-12-29T05:11:30;13.10;53.70
7447;DHT22;3765;47.962;7.952;2022-12-29T05:13:59;13.10;53.60
7447;DHT22;3765;47.962;7.952;2022-12-29T05:16:31;13.20;53.50
7447;DHT22;3765;47.962;7.952;2022-12-29T05:19:01;13.30;53.40
7447;DHT22;3765;47.962;7.952;2022-12-29T05:21:34;13.30;53.40
7447;DHT22;3765;47.962;7.952;2022-12-29T05:24:08;13.30;53.40
7447;DHT22;3765;47.962;7.952;2022-12-29T05:26:46;13.30;53.30
7447;DHT22;3765;47.962;7.952;2022-12-29T05:29:16;13.40;53.20
7447;DHT22;3765;47.962;7.952;2022-12-29T05:31:47;13.30;53.10
7447;DHT22;3765;47.962;7.952;2022-12-29T05:34:16;13.30;53.10
7447;DHT22;3765;47.962;7.952;2022-12-29T05:36:47;13.40;52.90
7447;DHT22;3765;47.962;7.952;2022-12-29T05:39:19;13.30;53.00
7447;DHT22;3765;47.962;7.952;2022-12-29T05:41:47;13.30;52.70
7447;DHT22;3765;47.962;7.952;2022-12-29T05:44:16;13.40;52.90
7447;DHT22;3765;47.962;7.952;2022-12-29T05:46:45;13.40;52.80
7447;DHT22;3765;47.962;7.952;2022-12-29T05:49:19;13.30;52.90
7447;DHT22;3765;47.962;7.952;2022-12-29T05:51:47;13.30;53.00
7447;DHT22;3765;47.962;7.952;2022-12-29T05:54:21;13.30;52.80
7447;DHT22;3765;47.962;7.952;2022-12-29T05:56:51;13.40;52.70
7447;DHT22;3765;47.962;7.952;2022-12-29T05:59:21;13.40;52.50
7447;DHT22;3765;47.962;7.952;2022-12-29T06:01:53;13.40;52.50
7447;DHT22;3765;47.962;7.952;2022-12-29T06:04:23;13.50;52.60
7447;DHT22;3765;47.962;7.952;2022-12-29T06:06:52;13.40;52.70
7447;DHT22;3765;47.962;7.952;2022-12-29T06:09:35;13.40;52.70
7447;DHT22;3765;47.962;7.952;2022-12-29T06:12:08;13.40;52.60
7447;DHT22;3765;47.962;7.952;2022-12-29T06:14:41;13.40;52.50
7447;DHT22;3765;47.962;7.952;2022-12-29T06:17:14;13.50;52.10
7447;DHT22;3765;47.962;7.952;2022-12-29T06:19:44;13.50;52.10
7447;DHT22;3765;47.962;7.952;2022-12-29T06:22:14;13.50;52.00
7447;DHT22;3765;47.962;7.952;2022-12-29T06:24:45;13.40;52.00
7447;DHT22;3765;47.962;7.952;2022-12-29T06:27:14;13.30;52.10
7447;DHT22;3765;47.962;7.952;2022-12-29T06:29:44;13.30;52.10
7447;DHT22;3765;47.962;7.952;2022-12-29T06:32:13;13.20;52.10
7447;DHT22;3765;47.962;7.952;2022-12-29T06:34:43;13.30;52.00
7447;DHT22;3765;47.962;7.952;2022-12-29T06:37:14;13.30;52.10
7447;DHT22;3765;47.962;7.952;2022-12-29T06:39:48;13.20;52.10
7447;DHT22;3765;47.962;7.952;2022-12-29T06:42:17;13.20;52.00
7447;DHT22;3765;47.962;7.952;2022-12-29T06:44:47;13.30;51.90
7447;DHT22;3765;47.962;7.952;2022-12-29T06:47:26;13.30;51.70
7447;DHT22;3765;47.962;7.952;2022-12-29T06:49:56;13.30;51.80
7447;DHT22;3765;47.962;7.952;2022-12-29T06:52:24;13.30;51.70
7447;DHT22;3765;47.962;7.952;2022-12-29T06:55:11;13.30;51.60
7447;DHT22;3765;47.962;7.952;2022-12-29T06:57:42;13.30;51.60
7447;DHT22;3765;47.962;7.952;2022-12-29T07:00:13;13.30;51.70
7447;DHT22;3765;47.962;7.952;2022-12-29T07:02:50;13.30;51.70
7447;DHT22;3765;47.962;7.952;2022-12-29T07:05:18;13.30;51.70
7447;DHT22;3765;47.962;7.952;2022-12-29T07:07:46;13.40;51.50
7447;DHT22;3765;47.962;7.952;2022-12-29T07:10:18;13.50;51.30
7447;DHT22;3765;47.962;7.952;2022-12-29T07:12:50;13.50;51.40
7447;DHT22;3765;47.962;7.952;2022-12-29T07:15:19;13.60;51.30
7447;DHT22;3765;47.962;7.952;2022-12-29T07:18:01;13.70;51.10
7447;DHT22;3765;47.962;7.952;2022-12-29T07:20:44;13.70;51.00
7447;DHT22;3765;47.962;7.952;2022-12-29T07:23:13;13.80;50.90
7447;DHT22;3765;47.962;7.952;2022-12-29T07:25:47;13.90;50.60
7447;DHT22;3765;47.962;7.952;2022-12-29T07:28:25;13.80;50.60
7447;DHT22;3765;47.962;7.952;2022-12-29T07:30:54;13.80;50.70
7447;DHT22;3765;47.962;7.952;2022-12-29T07:33:28;13.80;51.00
7447;DHT22;3765;47.962;7.952;2022-12-29T07:35:58;13.80;50.90
7447;DHT22;3765;47.962;7.952;2022-12-29T07:38:28;13.90;50.80
7447;DHT22;3765;47.962;7.952;2022-12-29T07:41:07;13.80;50.70
7447;DHT22;3765;47.962;7.952;2022-12-29T07:43:41;14.00;50.60
7447;DHT22;3765;47.962;7.952;2022-12-29T07:46:11;13.90;50.80
7447;DHT22;3765;47.962;7.952;2022-12-29T07:49:03;13.90;50.80
7447;DHT22;3765;47.962;7.952;2022-12-29T07:51:36;13.90;51.10
7447;DHT22;3765;47.962;7.952;2022-12-29T07:54:06;13.80;51.30
7447;DHT22;3765;47.962;7.952;2022-12-29T07:56:36;13.80;51.30
7447;DHT22;3765;47.962;7.952;2022-12-29T07:59:05;13.80;51.30
7447;DHT22;3765;47.962;7.952;2022-12-29T08:01:37;13.80;51.30
7447;DHT22;3765;47.962;7.952;2022-12-29T08:04:06;13.80;51.20
7447;DHT22;3765;47.962;7.952;2022-12-29T08:06:42;13.80;51.10
7447;DHT22;3765;47.962;7.952;2022-12-29T08:09:18;13.90;50.90
7447;DHT22;3765;47.962;7.952;2022-12-29T08:11:54;13.90;50.90
7447;DHT22;3765;47.962;7.952;2022-12-29T08:14:24;13.90;50.90
7447;DHT22;3765;47.962;7.952;2022-12-29T08:16:55;13.90;51.00
7447;DHT22;3765;47.962;7.952;2022-12-29T08:19:23;13.90;50.80
7447;DHT22;3765;47.962;7.952;2022-12-29T08:21:54;13.90;50.80
7447;DHT22;3765;47.962;7.952;2022-12-29T08:24:38;13.90;51.00
7447;DHT22;3765;47.962;7.952;2022-12-29T08:27:10;13.90;50.90
7447;DHT22;3765;47.962;7.952;2022-12-29T08:29:54;13.90;51.10
7447;DHT22;3765;47.962;7.952;2022-12-29T08:32:27;13.90;51.00
7447;DHT22;3765;47.962;7.952;2022-12-29T08:34:59;13.90;51.10
7447;DHT22;3765;47.962;7.952;2022-12-29T08:37:27;13.80;51.50
7447;DHT22;3765;47.962;7.952;2022-12-29T08:39:57;13.80;51.70
7447;DHT22;3765;47.962;7.952;2022-12-29T08:42:35;13.80;51.90
7447;DHT22;3765;47.962;7.952;2022-12-29T08:45:03;13.70;52.30
7447;DHT22;3765;47.962;7.952;2022-12-29T08:47:35;13.60;52.80
7447;DHT22;3765;47.962;7.952;2022-12-29T08:50:05;13.80;53.00
7447;DHT22;3765;47.962;7.952;2022-12-29T08:52:38;13.80;53.10
7447;DHT22;3765;47.962;7.952;2022-12-29T08:55:09;13.90;53.10
7447;DHT22;3765;47.962;7.952;2022-12-29T08:57:44;13.90;53.10
7447;DHT22;3765;47.962;7.952;2022-12-29T09:00:15;14.00;53.10
7447;DHT22;3765;47.962;7.952;2022-12-29T09:02:44;14.00;53.00
7447;DHT22;3765;47.962;7.952;2022-12-29T09:05:16;14.00;53.00
7447;DHT22;3765;47.962;7.952;2022-12-29T09:07:47;14.00;53.00
7447;DHT22;3765;47.962;7.952;2022-12-29T09:10:17;14.10;53.00
7447;DHT22;3765;47.962;7.952;2022-12-29T09:12:47;14.00;53.10
7447;DHT22;3765;47.962;7.952;2022-12-29T09:15:16;14.00;53.50
7447;DHT22;3765;47.962;7.952;2022-12-29T09:17:48;13.90;53.50
7447;DHT22;3765;47.962;7.952;2022-12-29T09:20:19;13.90;53.80
7447;DHT22;3765;47.962;7.952;2022-12-29T09:22:49;13.80;54.00
7447;DHT22;3765;47.962;7.952;2022-12-29T09:25:21;13.90;54.20
7447;DHT22;3765;47.962;7.952;2022-12-29T09:27:52;13.80;54.40
7447;DHT22;3765;47.962;7.952;2022-12-29T09:30:23;13.70;54.80
7447;DHT22;3765;47.962;7.952;2022-12-29T09:32:54;13.70;55.40
7447;DHT22;3765;47.962;7.952;2022-12-29T09:35:23;13.60;55.60
7447;DHT22;3765;47.962;7.952;2022-12-29T09:37:53;13.50;56.30
7447;DHT22;3765;47.962;7.952;2022-12-29T09:40:29;13.30;56.60
7447;DHT22;3765;47.962;7.952;2022-12-29T09:43:32;13.30;57.10
7447;DHT22;3765;47.962;7.952;2022-12-29T09:46:18;13.30;57.70
7447;DHT22;3765;47.962;7.952;2022-12-29T09:49:05;13.20;58.10
7447;DHT22;3765;47.962;7.952;2022-12-29T09:51:40;13.10;58.50
7447;DHT22;3765;47.962;7.952;2022-12-29T09:54:32;13.20;59.00
7447;DHT22;3765;47.962;7.952;2022-12-29T09:57:08;13.10;59.80
7447;DHT22;3765;47.962;7.952;2022-12-29T09:59:41;12.90;60.90
7447;DHT22;3765;47.962;7.952;2022-12-29T10:02:20;12.80;60.50
7447;DHT22;3765;47.962;7.952;2022-12-29T10:04:51;12.80;60.50
7447;DHT22;3765;47.962;7.952;2022-12-29T10:07:30;12.80;60.60
7447;DHT22;3765;47.962;7.952;2022-12-29T10:10:09;12.80;60.80
7447;DHT22;3765;47.962;7.952;2022-12-29T10:12:54;12.80;60.90
7447;DHT22;3765;47.962;7.952;2022-12-29T10:15:40;12.80;61.10
7447;DHT22;3765;47.962;7.952;2022-12-29T10:18:23;12.70;61.20
7447;DHT22;3765;47.962;7.952;2022-12-29T10:20:54;12.70;61.40
7447;DHT22;3765;47.962;7.952;2022-12-29T10:23:27;12.70;61.60
7447;DHT22;3765;47.962;7.952;2022-12-29T10:25:58;12.80;61.50
7447;DHT22;3765;47.962;7.952;2022-12-29T10:28:34;12.80;61.50
7447;DHT22;3765;47.962;7.952;2022-12-29T10:31:09;12.90;61.40
7447;DHT22;3765;47.962;7.952;2022-12-29T10:33:41;12.80;61.40
7447;DHT22;3765;47.962;7.952;2022-12-29T10:36:17;12.90;61.40
7447;DHT22;3765;47.962;7.952;2022-12-29T10:38:53;12.90;61.30
7447;DHT22;3765;47.962;7.952;2022-12-29T10:41:28;13.00;61.20
7447;DHT22;3765;47.962;7.952;2022-12-29T10:44:01;13.10;61.30
7447;DHT22;3765;47.962;7.952;2022-12-29T10:46:34;13.00;61.30
7447;DHT22;3765;47.962;7.952;2022-12-29T10:49:04;12.90;61.30
7447;DHT22;3765;47.962;7.952;2022-12-29T10:51:36;12.80;61.90
7447;DHT22;3765;47.962;7.952;2022-12-29T10:54:11;12.80;62.10
7447;DHT22;3765;47.962;7.952;2022-12-29T10:56:44;12.80;62.20
7447;DHT22;3765;47.962;7.952;2022-12-29T10:59:19;12.80;62.60
7447;DHT22;3765;47.962;7.952;2022-12-29T11:01:58;12.80;62.80
7447;DHT22;3765;47.962;7.952;2022-12-29T11:04:38;12.80;62.70
7447;DHT22;3765;47.962;7.952;2022-12-29T11:07:11;12.80;62.30
7447;DHT22;3765;47.962;7.952;2022-12-29T11:09:44;12.90;62.00
7447;DHT22;3765;47.962;7.952;2022-12-29T11:12:24;13.10;61.90
7447;DHT22;3765;47.962;7.952;2022-12-29T11:15:12;13.20;61.70
7447;DHT22;3765;47.962;7.952;2022-12-29T11:17:46;13.30;61.40
7447;DHT22;3765;47.962;7.952;2022-12-29T11:20:29;13.30;61.30
7447;DHT22;3765;47.962;7.952;2022-12-29T11:22:59;13.30;61.50
7447;DHT22;3765;47.962;7.952;2022-12-29T11:25:27;13.30;61.30
7447;DHT22;3765;47.962;7.952;2022-12-29T11:27:56;13.30;61.10
7447;DHT22;3765;47.962;7.952;2022-12-29T11:30:27;13.40;61.00
7447;DHT22;3765;47.962;7.952;2022-12-29T11:32:57;13.40;60.80
7447;DHT22;3765;47.962;7.952;2022-12-29T11:35:34;13.50;60.90
7447;DHT22;3765;47.962;7.952;2022-12-29T11:38:04;13.70;60.50
7447;DHT22;3765;47.962;7.952;2022-12-29T11:40:38;13.60;60.30
7447;DHT22;3765;47.962;7.952;2022-12-29T11:43:16;13.60;60.30
7447;DHT22;3765;47.962;7.952;2022-12-29T11:45:46;13.70;60.00
7447;DHT22;3765;47.962;7.952;2022-12-29T11:48:18;13.80;60.00
7447;DHT22;3765;47.962;7.952;2022-12-29T11:50:51;13.80;59.60
7447;DHT22;3765;47.962;7.952;2022-12-29T11:53:21;13.90;59.80
7447;DHT22;3765;47.962;7.952;2022-12-29T11:55:53;13.90;59.10
7447;DHT22;3765;47.962;7.952;2022-12-29T11:58:28;13.80;59.20
7447;DHT22;3765;47.962;7.952;2022-12-29T12:01:01;13.90;59.10
7447;DHT22;3765;47.962;7.952;2022-12-29T12:03:35;13.90;59.20
7447;DHT22;3765;47.962;7.952;2022-12-29T12:06:07;14.10;58.90
7447;DHT22;3765;47.962;7.952;2022-12-29T12:08:41;14.10;58.80
7447;DHT22;3765;47.962;7.952;2022-12-29T12:11:13;14.00;58.90
7447;DHT22;3765;47.962;7.952;2022-12-29T12:13:46;13.90;58.70
7447;DHT22;3765;47.962;7.952;2022-12-29T12:16:22;13.90;58.80
7447;DHT22;3765;47.962;7.952;2022-12-29T12:18:57;13.80;58.80
7447;DHT22;3765;47.962;7.952;2022-12-29T12:21:30;13.70;59.00
7447;DHT22;3765;47.962;7.952;2022-12-29T12:24:32;13.70;59.20
7447;DHT22;3765;47.962;7.952;2022-12-29T12:27:11;13.80;59.30
7447;DHT22;3765;47.962;7.952;2022-12-29T12:29:45;13.80;59.30
7447;DHT22;3765;47.962;7.952;2022-12-29T12:32:22;13.90;59.40
7447;DHT22;3765;47.962;7.952;2022-12-29T12:34:53;13.80;59.50
7447;DHT22;3765;47.962;7.952;2022-12-29T12:37:50;13.80;59.40
7447;DHT22;3765;47.962;7.952;2022-12-29T12:43:45;13.80;59.30
7447;DHT22;3765;47.962;7.952;2022-12-29T12:46:40;13.80;59.20
7447;DHT22;3765;47.962;7.952;2022-12-29T12:49:27;13.90;59.20
7447;DHT22;3765;47.962;7.952;2022-12-29T12:52:08;14.00;59.10
7447;DHT22;3765;47.962;7.952;2022-12-29T12:55:02;14.10;58.50
7447;DHT22;3765;47.962;7.952;2022-12-29T12:57:46;14.10;58.50
7447;DHT22;3765;47.962;7.952;2022-12-29T13:00:18;14.20;58.20
7447;DHT22;3765;47.962;7.952;2022-12-29T13:02:59;14.20;58.00
7447;DHT22;3765;47.962;7.952;2022-12-29T13:05:41;14.20;58.00
7447;DHT22;3765;47.962;7.952;2022-12-29T13:11:17;14.00;58.00
7447;DHT22;3765;47.962;7.952;2022-12-29T13:14:02;14.10;58.30
7447;DHT22;3765;47.962;7.952;2022-12-29T13:16:38;14.00;58.20
7447;DHT22;3765;47.962;7.952;2022-12-29T13:19:14;14.00;58.20
7447;DHT22;3765;47.962;7.952;2022-12-29T13:21:55;14.00;58.20
7447;DHT22;3765;47.962;7.952;2022-12-29T13:24:40;13.90;58.20
7447;DHT22;3765;47.962;7.952;2022-12-29T13:27:16;14.00;58.30
7447;DHT22;3765;47.962;7.952;2022-12-29T13:29:53;14.00;58.30
7447;DHT22;3765;47.962;7.952;2022-12-29T13:32:35;13.90;58.20
7447;DHT22;3765;47.962;7.952;2022-12-29T13:35:21;14.00;58.40
7447;DHT22;3765;47.962;7.952;2022-12-29T13:37:55;13.80;58.30
7447;DHT22;3765;47.962;7.952;2022-12-29T13:40:30;13.80;58.70
7447;DHT22;3765;47.962;7.952;2022-12-29T13:43:01;13.70;58.80
7447;DHT22;3765;47.962;7.952;2022-12-29T13:45:32;13.70;59.10
7447;DHT22;3765;47.962;7.952;2022-12-29T13:48:05;13.60;59.20
7447;DHT22;3765;47.962;7.952;2022-12-29T13:50:37;13.50;59.50
7447;DHT22;3765;47.962;7.952;2022-12-29T13:53:15;13.40;60.00
7447;DHT22;3765;47.962;7.952;2022-12-29T13:55:53;13.40;60.40
7447;DHT22;3765;47.962;7.952;2022-12-29T13:58:27;13.30;60.40
7447;DHT22;3765;47.962;7.952;2022-12-29T14:01:03;13.30;60.50
7447;DHT22;3765;47.962;7.952;2022-12-29T14:03:46;13.30;60.60
7447;DHT22;3765;47.962;7.952;2022-12-29T14:06:23;13.30;60.50
7447;DHT22;3765;47.962;7.952;2022-12-29T14:08:54;13.30;60.50
7447;DHT22;3765;47.962;7.952;2022-12-29T14:11:30;13.30;60.80
7447;DHT22;3765;47.962;7.952;2022-12-29T14:13:59;13.30;60.90
7447;DHT22;3765;47.962;7.952;2022-12-29T14:16:37;13.20;60.80
7447;DHT22;3765;47.962;7.952;2022-12-29T14:19:13;13.30;60.90
7447;DHT22;3765;47.962;7.952;2022-12-29T14:21:51;13.20;60.90
7447;DHT22;3765;47.962;7.952;2022-12-29T14:24:40;13.30;60.90
7447;DHT22;3765;47.962;7.952;2022-12-29T14:27:50;13.30;60.80
7447;DHT22;3765;47.962;7.952;2022-12-29T14:30:47;13.20;61.00
7447;DHT22;3765;47.962;7.952;2022-12-29T14:33:17;13.30;60.90
7447;DHT22;3765;47.962;7.952;2022-12-29T14:35:47;13.30;60.80
7447;DHT22;3765;47.962;7.952;2022-12-29T14:38:22;13.30;60.80
7447;DHT22;3765;47.962;7.952;2022-12-29T14:40:51;13.30;60.80
7447;DHT22;3765;47.962;7.952;2022-12-29T14:43:26;13.30;60.80
7447;DHT22;3765;47.962;7.952;2022-12-29T14:45:58;13.30;60.80
7447;DHT22;3765;47.962;7.952;2022-12-29T14:48:45;13.30;60.80
7447;DHT22;3765;47.962;7.952;2022-12-29T14:51:25;13.30;60.70
7447;DHT22;3765;47.962;7.952;2022-12-29T14:53:55;13.30;60.80
7447;DHT22;3765;47.962;7.952;2022-12-29T14:56:26;13.30;60.70
7447;DHT22;3765;47.962;7.952;2022-12-29T14:58:58;13.40;60.90
7447;DHT22;3765;47.962;7.952;2022-12-29T15:01:39;13.40;60.80
7447;DHT22;3765;47.962;7.952;2022-12-29T15:04:15;13.40;60.70
7447;DHT22;3765;47.962;7.952;2022-12-29T15:06:45;13.30;60.70
7447;DHT22;3765;47.962;7.952;2022-12-29T15:09:24;13.30;60.80
7447;DHT22;3765;47.962;7.952;2022-12-29T15:11:55;13.30;60.70
7447;DHT22;3765;47.962;7.952;2022-12-29T15:14:32;13.40;60.80
7447;DHT22;3765;47.962;7.952;2022-12-29T15:17:02;13.40;61.00
7447;DHT22;3765;47.962;7.952;2022-12-29T15:19:37;13.30;60.90
7447;DHT22;3765;47.962;7.952;2022-12-29T15:22:05;13.30;61.00
7447;DHT22;3765;47.962;7.952;2022-12-29T15:24:34;13.30;61.30
7447;DHT22;3765;47.962;7.952;2022-12-29T15:27:13;13.30;61.30
7447;DHT22;3765;47.962;7.952;2022-12-29T15:29:45;13.30;61.40
7447;DHT22;3765;47.962;7.952;2022-12-29T15:32:20;13.20;61.80
7447;DHT22;3765;47.962;7.952;2022-12-29T15:34:50;13.10;62.00
7447;DHT22;3765;47.962;7.952;2022-12-29T15:37:21;12.90;61.60
7447;DHT22;3765;47.962;7.952;2022-12-29T15:39:50;12.90;61.70
7447;DHT22;3765;47.962;7.952;2022-12-29T15:42:29;12.90;62.30
7447;DHT22;3765;47.962;7.952;2022-12-29T15:45:03;12.80;62.40
7447;DHT22;3765;47.962;7.952;2022-12-29T15:47:38;12.80;62.60
7447;DHT22;3765;47.962;7.952;2022-12-29T15:50:14;12.70;62.90
7447;DHT22;3765;47.962;7.952;2022-12-29T15:52:43;12.70;63.20
7447;DHT22;3765;47.962;7.952;2022-12-29T15:55:20;12.50;64.20
7447;DHT22;3765;47.962;7.952;2022-12-29T15:57:49;12.40;64.30
7447;DHT22;3765;47.962;7.952;2022-12-29T16:00:29;12.40;64.60
7447;DHT22;3765;47.962;7.952;2022-12-29T16:02:59;12.30;64.90
7447;DHT22;3765;47.962;7.952;2022-12-29T16:05:32;12.20;65.20
7447;DHT22;3765;47.962;7.952;2022-12-29T16:08:02;12.10;65.60
7447;DHT22;3765;47.962;7.952;2022-12-29T16:10:35;12.10;65.70
7447;DHT22;3765;47.962;7.952;2022-12-29T16:13:10;12.10;66.10
7447;DHT22;3765;47.962;7.952;2022-12-29T16:15:45;12.10;65.90
7447;DHT22;3765;47.962;7.952;2022-12-29T16:18:21;12.20;66.10
7447;DHT22;3765;47.962;7.952;2022-12-29T16:20:52;12.20;65.90
7447;DHT22;3765;47.962;7.952;2022-12-29T16:23:25;12.30;65.60
7447;DHT22;3765;47.962;7.952;2022-12-29T16:25:58;12.30;65.20
7447;DHT22;3765;47.962;7.952;2022-12-29T16:28:30;12.30;65.50
7447;DHT22;3765;47.962;7.952;2022-12-29T16:31:05;12.20;65.30
7447;DHT22;3765;47.962;7.952;2022-12-29T16:33:39;12.20;65.10
7447;DHT22;3765;47.962;7.952;2022-12-29T16:36:24;12.30;65.10
7447;DHT22;3765;47.962;7.952;2022-12-29T16:41:55;12.20;65.20
7447;DHT22;3765;47.962;7.952;2022-12-29T16:44:25;12.20;65.30
7447;DHT22;3765;47.962;7.952;2022-12-29T16:47:04;12.30;65.20
7447;DHT22;3765;47.962;7.952;2022-12-29T16:49:36;12.20;65.40
7447;DHT22;3765;47.962;7.952;2022-12-29T16:52:12;12.20;65.50
7447;DHT22;3765;47.962;7.952;2022-12-29T16:54:41;12.20;65.50
7447;DHT22;3765;47.962;7.952;2022-12-29T16:57:22;12.10;65.80
7447;DHT22;3765;47.962;7.952;2022-12-29T16:59:57;12.10;66.10